sensor_id;sensor_type;location;lat;lon;timestamp;pressure;altitude;pressure_sealevel;temperature;humidity
78144;BME280;67394;52.522;13.622;2023-07-09T00:01:18;101437.00;;;17.53;61.98
78144;BME280;67394;52.522;13.622;2023-07-09T00:03:46;101438.75;;;17.51;61.60
78144;BME280;67394;52.522;13.622;2023-07-09T00:06:13;101433.59;;;17.50;61.36
78144;BME280;67394;52.522;13.622;2023-07-09T00:08:44;101437.88;;;17.52;61.94
78144;BME280;67394;52.522;13.622;2023-07-09T00:11:14;101444.00;;;17.48;62.31
78144;BME280;67394;52.522;13.622;2023-07-09T00:13:43;101440.69;;;17.39;62.26
78144;BME280;67394;52.522;13.622;2023-07-09T00:16:15;101441.63;;;17.36;61.70
78144;BME280;67394;52.522;13.622;2023-07-09T00:18:43;101440.81;;;17.33;62.21
78144;BME280;67394;52.522;13.622;2023-07-09T00:21:11;101441.69;;;17.30;62.44
78144;BME280;67394;52.522;13.622;2023-07-09T00:23:37;101442.66;;;17.26;62.08
78144;BME280;67394;52.522;13.622;2023-07-09T00:26:08;101443.50;;;17.27;62.13
78144;BME280;67394;52.522;13.622;2023-07-09T00:28:35;101440.91;;;17.27;61.91
78144;BME280;67394;52.522;13.622;2023-07-09T00:31:02;101432.28;;;17.26;63.04
78144;BME280;67394;52.522;13.622;2023-07-09T00:33:29;101429.75;;;17.20;62.92
78144;BME280;67394;52.522;13.622;2023-07-09T00:35:55;101425.47;;;17.17;63.05
78144;BME280;67394;52.522;13.622;2023-07-09T00:38:22;101421.25;;;17.13;62.87
78144;BME280;67394;52.522;13.622;2023-07-09T00:43:31;101430.91;;;17.01;64.26
78144;BME280;67394;52.522;13.622;2023-07-09T00:49:01;101424.91;;;16.97;64.25
78144;BME280;67394;52.522;13.622;2023-07-09T00:51:29;101417.22;;;16.93;63.75
78144;BME280;67394;52.522;13.622;2023-07-09T00:53:58;101424.13;;;16.92;64.71
78144;BME280;67394;52.522;13.622;2023-07-09T00:56:29;101416.44;;;16.88;64.53
78144;BME280;67394;52.522;13.622;2023-07-09T00:58:58;101412.13;;;16.87;64.54
78144;BME280;67394;52.522;13.622;2023-07-09T01:01:27;101408.69;;;16.84;64.95
78144;BME280;67394;52.522;13.622;2023-07-09T01:03:57;101402.69;;;16.82;65.36
78144;BME280;67394;52.522;13.622;2023-07-09T01:06:29;101405.31;;;16.81;64.73
78144;BME280;67394;52.522;13.622;2023-07-09T01:08:58;101403.59;;;16.80;65.37
78144;BME280;67394;52.522;13.622;2023-07-09T01:11:30;101397.59;;;16.75;65.47
78144;BME280;67394;52.522;13.622;2023-07-09T01:14:01;101401.13;;;16.71;64.89
78144;BME280;67394;52.522;13.622;2023-07-09T01:16:31;101407.19;;;16.68;64.82
78144;BME280;67394;52.522;13.622;2023-07-09T01:18:58;101407.25;;;16.64;65.41
78144;BME280;67394;52.522;13.622;2023-07-09T01:21:26;101405.50;;;16.67;66.58
78144;BME280;67394;52.522;13.622;2023-07-09T01:23:53;101410.66;;;16.69;66.57
78144;BME280;67394;52.522;13.622;2023-07-09T01:26:21;101406.44;;;16.62;66.46
78144;BME280;67394;52.522;13.622;2023-07-09T01:28:48;101413.38;;;16.54;66.50
78144;BME280;67394;52.522;13.622;2023-07-09T01:31:15;101398.81;;;16.46;67.02
78144;BME280;67394;52.522;13.622;2023-07-09T01:33:43;101407.47;;;16.44;67.64
78144;BME280;67394;52.522;13.622;2023-07-09T01:36:18;101403.16;;;16.44;67.73
78144;BME280;67394;52.522;13.622;2023-07-09T01:38:46;101411.75;;;16.48;68.09
78144;BME280;67394;52.522;13.622;2023-07-09T01:41:13;101418.66;;;16.47;67.79
78144;BME280;67394;52.522;13.622;2023-07-09T01:43:40;101416.19;;;16.37;67.78
78144;BME280;67394;52.522;13.622;2023-07-09T01:46:07;101414.56;;;16.30;68.78
78144;BME280;67394;52.522;13.622;2023-07-09T01:48:34;101418.06;;;16.24;69.33
78144;BME280;67394;52.522;13.622;2023-07-09T01:51:01;101414.72;;;16.15;70.37
78144;BME280;67394;52.522;13.622;2023-07-09T01:53:28;101413.00;;;16.17;69.75
78144;BME280;67394;52.522;13.622;2023-07-09T01:55:55;101411.28;;;16.16;70.37
78144;BME280;67394;52.522;13.622;2023-07-09T01:58:21;101415.56;;;16.18;70.67
78144;BME280;67394;52.522;13.622;2023-07-09T02:00:48;101415.59;;;16.14;70.76
78144;BME280;67394;52.522;13.622;2023-07-09T02:03:15;101413.09;;;16.06;70.05
78144;BME280;67394;52.522;13.622;2023-07-09T02:05:41;101414.00;;;16.02;71.37
78144;BME280;67394;52.522;13.622;2023-07-09T02:08:10;101420.03;;;16.04;71.72
78144;BME280;67394;52.522;13.622;2023-07-09T02:10:38;101411.50;;;15.94;71.86
78144;BME280;67394;52.522;13.622;2023-07-09T02:13:05;101415.91;;;15.86;71.55
78144;BME280;67394;52.522;13.622;2023-07-09T02:15:32;101405.63;;;15.79;72.31
78144;BME280;67394;52.522;13.622;2023-07-09T02:17:58;101409.13;;;15.71;71.46
78144;BME280;67394;52.522;13.622;2023-07-09T02:20:25;101416.88;;;15.73;72.18
78144;BME280;67394;52.522;13.622;2023-07-09T02:22:51;101412.66;;;15.66;72.48
78144;BME280;67394;52.522;13.622;2023-07-09T02:25:20;101416.09;;;15.66;72.15
78144;BME280;67394;52.522;13.622;2023-07-09T02:27:47;101423.84;;;15.65;72.73
78144;BME280;67394;52.522;13.622;2023-07-09T02:30:13;101416.16;;;15.59;73.93
78144;BME280;67394;52.522;13.622;2023-07-09T02:32:40;101421.38;;;15.54;73.48
78144;BME280;67394;52.522;13.622;2023-07-09T02:35:07;101416.19;;;15.50;72.80
78144;BME280;67394;52.522;13.622;2023-07-09T02:37:34;101411.94;;;15.46;72.54
78144;BME280;67394;52.522;13.622;2023-07-09T02:40:00;101416.25;;;15.47;73.34
78144;BME280;67394;52.522;13.622;2023-07-09T02:42:27;101425.72;;;15.45;74.44
78144;BME280;67394;52.522;13.622;2023-07-09T02:44:53;101422.31;;;15.39;74.36
78144;BME280;67394;52.522;13.622;2023-07-09T02:47:20;101424.88;;;15.39;74.34
78144;BME280;67394;52.522;13.622;2023-07-09T02:49:49;101432.66;;;15.36;74.74
78144;BME280;67394;52.522;13.622;2023-07-09T02:52:16;101432.63;;;15.41;74.91
78144;BME280;67394;52.522;13.622;2023-07-09T02:54:43;101431.78;;;15.39;74.72
78144;BME280;67394;52.522;13.622;2023-07-09T02:57:10;101431.84;;;15.34;74.86
78144;BME280;67394;52.522;13.622;2023-07-09T02:59:36;101432.69;;;15.33;74.80
78144;BME280;67394;52.522;13.622;2023-07-09T03:02:04;101431.81;;;15.36;74.23
78144;BME280;67394;52.522;13.622;2023-07-09T03:04:30;101430.13;;;15.32;74.15
78144;BME280;67394;52.522;13.622;2023-07-09T03:06:57;101431.84;;;15.31;74.82
78144;BME280;67394;52.522;13.622;2023-07-09T03:09:24;101435.28;;;15.32;74.19
78144;BME280;67394;52.522;13.622;2023-07-09T03:11:51;101432.72;;;15.29;73.95
78144;BME280;67394;52.522;13.622;2023-07-09T03:14:17;101434.44;;;15.33;73.88
78144;BME280;67394;52.522;13.622;2023-07-09T03:16:44;101437.88;;;15.33;73.85
78144;BME280;67394;52.522;13.622;2023-07-09T03:19:11;101442.19;;;15.33;73.92
78144;BME280;67394;52.522;13.622;2023-07-09T03:21:38;101437.88;;;15.33;73.90
78144;BME280;67394;52.522;13.622;2023-07-09T03:24:06;101439.59;;;15.34;73.92
78144;BME280;67394;52.522;13.622;2023-07-09T03:26:34;101436.13;;;15.35;73.73
78144;BME280;67394;52.522;13.622;2023-07-09T03:29:00;101435.22;;;15.38;74.00
78144;BME280;67394;52.522;13.622;2023-07-09T03:31:27;101437.81;;;15.36;74.13
78144;BME280;67394;52.522;13.622;2023-07-09T03:33:54;101437.81;;;15.36;73.93
78144;BME280;67394;52.522;13.622;2023-07-09T03:36:21;101446.41;;;15.38;73.34
78144;BME280;67394;52.522;13.622;2023-07-09T03:38:48;101442.13;;;15.37;74.18
78144;BME280;67394;52.522;13.622;2023-07-09T03:41:15;101438.69;;;15.37;74.52
78144;BME280;67394;52.522;13.622;2023-07-09T03:43:42;101439.53;;;15.39;73.32
78144;BME280;67394;52.522;13.622;2023-07-09T03:46:09;101437.78;;;15.43;73.66
78144;BME280;67394;52.522;13.622;2023-07-09T03:48:36;101443.81;;;15.46;74.45
78144;BME280;67394;52.522;13.622;2023-07-09T03:51:03;101442.97;;;15.43;74.31
78144;BME280;67394;52.522;13.622;2023-07-09T03:53:30;101444.66;;;15.45;75.22
78144;BME280;67394;52.522;13.622;2023-07-09T03:55:57;101444.66;;;15.47;75.00
78144;BME280;67394;52.522;13.622;2023-07-09T03:58:23;101443.75;;;15.51;74.71
78144;BME280;67394;52.522;13.622;2023-07-09T04:00:50;101444.59;;;15.51;74.54
78144;BME280;67394;52.522;13.622;2023-07-09T04:03:17;101452.38;;;15.54;74.50
78144;BME280;67394;52.522;13.622;2023-07-09T04:05:43;101453.19;;;15.58;73.70
78144;BME280;67394;52.522;13.622;2023-07-09T04:08:10;101448.84;;;15.66;73.97
78144;BME280;67394;52.522;13.622;2023-07-09T04:10:36;101451.44;;;15.66;74.21
78144;BME280;67394;52.522;13.622;2023-07-09T04:13:03;101451.38;;;15.70;73.35
78144;BME280;67394;52.522;13.622;2023-07-09T04:15:29;101451.34;;;15.75;72.50
78144;BME280;67394;52.522;13.622;2023-07-09T04:17:56;101458.19;;;15.79;73.18
78144;BME280;67394;52.522;13.622;2023-07-09T04:20:23;101465.88;;;15.88;72.66
78144;BME280;67394;52.522;13.622;2023-07-09T04:22:49;101460.63;;;15.96;71.44
78144;BME280;67394;52.522;13.622;2023-07-09T04:25:17;101459.69;;;16.01;71.16
78144;BME280;67394;52.522;13.622;2023-07-09T04:27:43;101465.69;;;16.09;71.52
78144;BME280;67394;52.522;13.622;2023-07-09T04:30:12;101463.03;;;16.13;71.50
78144;BME280;67394;52.522;13.622;2023-07-09T04:32:40;101470.75;;;16.20;70.69
78144;BME280;67394;52.522;13.622;2023-07-09T04:35:07;101468.09;;;16.25;71.71
78144;BME280;67394;52.522;13.622;2023-07-09T04:37:34;101466.34;;;16.28;71.40
78144;BME280;67394;52.522;13.622;2023-07-09T04:40:01;101458.53;;;16.31;71.89
78144;BME280;67394;52.522;13.622;2023-07-09T04:42:27;101458.47;;;16.37;72.62
78144;BME280;67394;52.522;13.622;2023-07-09T04:44:55;101461.81;;;16.45;71.43
78144;BME280;67394;52.522;13.622;2023-07-09T04:47:22;101461.69;;;16.55;70.69
78144;BME280;67394;52.522;13.622;2023-07-09T04:49:50;101462.50;;;16.61;71.35
78144;BME280;67394;52.522;13.622;2023-07-09T04:52:16;101466.75;;;16.67;70.90
78144;BME280;67394;52.522;13.622;2023-07-09T04:54:43;101470.16;;;16.73;71.36
78144;BME280;67394;52.522;13.622;2023-07-09T04:57:11;101460.47;;;16.84;68.99
78144;BME280;67394;52.522;13.622;2023-07-09T04:59:38;101468.16;;;16.94;69.99
78144;BME280;67394;52.522;13.622;2023-07-09T05:02:05;101468.09;;;16.97;70.42
78144;BME280;67394;52.522;13.622;2023-07-09T05:04:32;101471.34;;;17.11;68.55
78144;BME280;67394;52.522;13.622;2023-07-09T05:06:59;101467.88;;;17.13;68.33
78144;BME280;67394;52.522;13.622;2023-07-09T05:09:26;101466.00;;;17.25;69.72
78144;BME280;67394;52.522;13.622;2023-07-09T05:11:53;101468.47;;;17.32;69.42
78144;BME280;67394;52.522;13.622;2023-07-09T05:14:20;101466.56;;;17.42;68.21
78144;BME280;67394;52.522;13.622;2023-07-09T05:16:46;101468.19;;;17.49;68.09
78144;BME280;67394;52.522;13.622;2023-07-09T05:19:14;101468.00;;;17.63;68.15
78144;BME280;67394;52.522;13.622;2023-07-09T05:21:40;101459.16;;;17.74;67.03
78144;BME280;67394;52.522;13.622;2023-07-09T05:24:07;101467.69;;;17.81;66.94
78144;BME280;67394;52.522;13.622;2023-07-09T05:26:34;101474.53;;;17.85;66.58
78144;BME280;67394;52.522;13.622;2023-07-09T05:29:02;101474.34;;;17.97;65.64
78144;BME280;67394;52.522;13.622;2023-07-09T05:31:28;101473.25;;;18.10;65.99
78144;BME280;67394;52.522;13.622;2023-07-09T05:33:55;101473.91;;;18.20;66.71
78144;BME280;67394;52.522;13.622;2023-07-09T05:36:21;101471.16;;;18.29;67.47
78144;BME280;67394;52.522;13.622;2023-07-09T05:38:48;101475.31;;;18.36;66.78
78144;BME280;67394;52.522;13.622;2023-07-09T05:41:14;101475.06;;;18.50;66.95
78144;BME280;67394;52.522;13.622;2023-07-09T05:43:41;101473.22;;;18.55;66.31
78144;BME280;67394;52.522;13.622;2023-07-09T05:46:07;101474.78;;;18.65;65.32
78144;BME280;67394;52.522;13.622;2023-07-09T05:48:33;101478.00;;;18.76;65.73
78144;BME280;67394;52.522;13.622;2023-07-09T05:51:00;101476.16;;;18.83;67.02
78144;BME280;67394;52.522;13.622;2023-07-09T05:53:26;101474.06;;;18.98;65.52
78144;BME280;67394;52.522;13.622;2023-07-09T05:55:54;101468.59;;;19.11;65.24
78144;BME280;67394;52.522;13.622;2023-07-09T05:58:22;101463.09;;;19.24;66.92
78144;BME280;67394;52.522;13.622;2023-07-09T06:00:52;101467.97;;;19.38;64.04
78144;BME280;67394;52.522;13.622;2023-07-09T06:03:20;101475.50;;;19.50;64.84
78144;BME280;67394;52.522;13.622;2023-07-09T06:05:47;101469.03;;;19.66;62.34
78144;BME280;67394;52.522;13.622;2023-07-09T06:08:14;101471.03;;;19.91;63.03
78144;BME280;67394;52.522;13.622;2023-07-09T06:11:00;101469.97;;;19.98;63.86
78144;BME280;67394;52.522;13.622;2023-07-09T06:13:28;101468.78;;;20.09;62.60
78144;BME280;67394;52.522;13.622;2023-07-09T06:15:55;101468.25;;;20.29;59.58
78144;BME280;67394;52.522;13.622;2023-07-09T06:18:23;101478.31;;;20.43;58.66
78144;BME280;67394;52.522;13.622;2023-07-09T06:20:51;101480.44;;;20.60;59.43
78144;BME280;67394;52.522;13.622;2023-07-09T06:23:19;101475.13;;;20.92;56.83
78144;BME280;67394;52.522;13.622;2023-07-09T06:25:46;101467.81;;;21.05;57.71
78144;BME280;67394;52.522;13.622;2023-07-09T06:28:17;101480.69;;;21.09;57.91
78144;BME280;67394;52.522;13.622;2023-07-09T06:30:44;101475.25;;;21.17;56.90
78144;BME280;67394;52.522;13.622;2023-07-09T06:33:13;101475.03;;;21.25;57.89
78144;BME280;67394;52.522;13.622;2023-07-09T06:35:49;101472.94;;;21.36;59.01
78144;BME280;67394;52.522;13.622;2023-07-09T06:38:17;101479.19;;;21.58;56.80
78144;BME280;67394;52.522;13.622;2023-07-09T06:40:44;101472.78;;;21.67;57.48
78144;BME280;67394;52.522;13.622;2023-07-09T06:43:11;101477.44;;;21.83;56.71
78144;BME280;67394;52.522;13.622;2023-07-09T06:45:37;101480.72;;;21.90;57.05
78144;BME280;67394;52.522;13.622;2023-07-09T06:48:04;101481.22;;;22.01;54.14
78144;BME280;67394;52.522;13.622;2023-07-09T06:50:34;101481.53;;;22.17;55.13
78144;BME280;67394;52.522;13.622;2023-07-09T06:53:01;101486.28;;;22.31;53.53
78144;BME280;67394;52.522;13.622;2023-07-09T06:55:27;101487.75;;;22.38;54.98
78144;BME280;67394;52.522;13.622;2023-07-09T06:57:53;101490.31;;;22.39;53.87
78144;BME280;67394;52.522;13.622;2023-07-09T07:00:20;101497.72;;;22.51;54.30
78144;BME280;67394;52.522;13.622;2023-07-09T07:02:47;101494.41;;;22.70;51.97
78144;BME280;67394;52.522;13.622;2023-07-09T07:05:13;101496.81;;;22.77;52.66
78144;BME280;67394;52.522;13.622;2023-07-09T07:07:40;101490.97;;;22.92;51.24
78144;BME280;67394;52.522;13.622;2023-07-09T07:10:06;101485.44;;;23.00;50.55
78144;BME280;67394;52.522;13.622;2023-07-09T07:12:42;101494.59;;;23.12;50.51
78144;BME280;67394;52.522;13.622;2023-07-09T07:15:09;101488.13;;;23.20;51.37
78144;BME280;67394;52.522;13.622;2023-07-09T07:17:35;101480.28;;;23.20;52.16
78144;BME280;67394;52.522;13.622;2023-07-09T07:20:02;101492.66;;;23.39;50.28
78144;BME280;67394;52.522;13.622;2023-07-09T07:22:28;101488.97;;;23.43;49.39
78144;BME280;67394;52.522;13.622;2023-07-09T07:24:55;101486.75;;;23.55;49.86
78144;BME280;67394;52.522;13.622;2023-07-09T07:27:21;101488.94;;;23.66;49.20
78144;BME280;67394;52.522;13.622;2023-07-09T07:29:48;101487.50;;;23.79;47.97
78144;BME280;67394;52.522;13.622;2023-07-09T07:32:14;101495.72;;;23.92;49.06
78144;BME280;67394;52.522;13.622;2023-07-09T07:34:41;101491.06;;;23.98;49.34
78144;BME280;67394;52.522;13.622;2023-07-09T07:37:07;101490.41;;;24.14;50.35
78144;BME280;67394;52.522;13.622;2023-07-09T07:39:33;101492.38;;;24.29;48.42
78144;BME280;67394;52.522;13.622;2023-07-09T07:42:00;101489.28;;;24.39;47.75
78144;BME280;67394;52.522;13.622;2023-07-09T07:44:26;101493.06;;;24.53;47.13
78144;BME280;67394;52.522;13.622;2023-07-09T07:46:52;101485.56;;;24.64;47.41
78144;BME280;67394;52.522;13.622;2023-07-09T07:49:19;101487.88;;;24.70;47.96
78144;BME280;67394;52.522;13.622;2023-07-09T07:51:45;101486.47;;;24.81;48.24
78144;BME280;67394;52.522;13.622;2023-07-09T07:54:12;101485.13;;;24.92;47.58
78144;BME280;67394;52.522;13.622;2023-07-09T07:56:38;101487.22;;;25.04;47.44
78144;BME280;67394;52.522;13.622;2023-07-09T07:59:06;101476.56;;;25.07;46.36
78144;BME280;67394;52.522;13.622;2023-07-09T08:01:32;101485.66;;;25.19;47.93
78144;BME280;67394;52.522;13.622;2023-07-09T08:03:59;101480.03;;;25.26;46.68
78144;BME280;67394;52.522;13.622;2023-07-09T08:06:25;101485.75;;;25.34;45.51
78144;BME280;67394;52.522;13.622;2023-07-09T08:08:52;101487.00;;;25.44;45.43
78144;BME280;67394;52.522;13.622;2023-07-09T08:11:18;101486.63;;;25.52;48.66
78144;BME280;67394;52.522;13.622;2023-07-09T08:13:45;101484.44;;;25.62;46.38
78144;BME280;67394;52.522;13.622;2023-07-09T08:16:11;101479.16;;;25.79;46.84
78144;BME280;67394;52.522;13.622;2023-07-09T08:18:38;101481.97;;;25.93;43.66
78144;BME280;67394;52.522;13.622;2023-07-09T08:21:04;101489.28;;;26.04;43.90
78144;BME280;67394;52.522;13.622;2023-07-09T08:23:31;101490.50;;;26.14;44.75
78144;BME280;67394;52.522;13.622;2023-07-09T08:25:59;101480.91;;;26.30;47.57
78144;BME280;67394;52.522;13.622;2023-07-09T08:28:26;101489.94;;;26.42;44.35
78144;BME280;67394;52.522;13.622;2023-07-09T08:30:54;101484.97;;;26.53;43.80
78144;BME280;67394;52.522;13.622;2023-07-09T08:33:21;101493.75;;;26.69;43.77
78144;BME280;67394;52.522;13.622;2023-07-09T08:35:52;101483.72;;;26.91;40.67
78144;BME280;67394;52.522;13.622;2023-07-09T08:38:19;101487.56;;;27.02;42.07
78144;BME280;67394;52.522;13.622;2023-07-09T08:41:09;101482.38;;;27.16;41.33
78144;BME280;67394;52.522;13.622;2023-07-09T08:43:52;101479.81;;;27.30;41.74
78144;BME280;67394;52.522;13.622;2023-07-09T08:46:33;101484.97;;;27.47;38.08
78144;BME280;67394;52.522;13.622;2023-07-09T08:49:14;101482.66;;;27.57;39.55
78144;BME280;67394;52.522;13.622;2023-07-09T08:51:42;101483.34;;;27.60;38.50
78144;BME280;67394;52.522;13.622;2023-07-09T08:54:33;101480.03;;;27.57;37.28
78144;BME280;67394;52.522;13.622;2023-07-09T08:57:17;101472.31;;;27.84;40.44
78144;BME280;67394;52.522;13.622;2023-07-09T08:59:45;101473.53;;;27.92;37.53
78144;BME280;67394;52.522;13.622;2023-07-09T09:03:05;101471.91;;;28.20;39.51
78144;BME280;67394;52.522;13.622;2023-07-09T09:05:36;101479.25;;;28.43;37.75
78144;BME280;67394;52.522;13.622;2023-07-09T09:10:47;101480.06;;;28.72;39.03
78144;BME280;67394;52.522;13.622;2023-07-09T09:13:18;101473.66;;;28.90;38.26
78144;BME280;67394;52.522;13.622;2023-07-09T09:15:47;101476.13;;;29.20;39.66
78144;BME280;67394;52.522;13.622;2023-07-09T09:18:27;101480.25;;;29.51;37.09
78144;BME280;67394;52.522;13.622;2023-07-09T09:23:45;101469.03;;;29.21;33.97
78144;BME280;67394;52.522;13.622;2023-07-09T09:26:18;101483.13;;;29.61;36.93
78144;BME280;67394;52.522;13.622;2023-07-09T09:28:47;101476.59;;;29.66;34.18
78144;BME280;67394;52.522;13.622;2023-07-09T09:31:13;101470.25;;;29.69;32.04
78144;BME280;67394;52.522;13.622;2023-07-09T09:33:43;101480.78;;;29.96;33.82
78144;BME280;67394;52.522;13.622;2023-07-09T09:36:36;101477.06;;;30.24;32.63
78144;BME280;67394;52.522;13.622;2023-07-09T09:39:03;101471.97;;;30.46;32.20
78144;BME280;67394;52.522;13.622;2023-07-09T09:41:33;101480.56;;;30.24;31.69
78144;BME280;67394;52.522;13.622;2023-07-09T09:44:01;101491.91;;;30.39;33.07
78144;BME280;67394;52.522;13.622;2023-07-09T09:46:28;101485.00;;;30.62;32.79
78144;BME280;67394;52.522;13.622;2023-07-09T09:48:56;101476.25;;;30.85;31.87
78144;BME280;67394;52.522;13.622;2023-07-09T09:51:23;101478.00;;;30.97;31.06
78144;BME280;67394;52.522;13.622;2023-07-09T09:53:55;101478.72;;;31.12;32.79
78144;BME280;67394;52.522;13.622;2023-07-09T09:56:33;101476.97;;;31.23;33.87
78144;BME280;67394;52.522;13.622;2023-07-09T09:59:00;101466.91;;;31.40;31.58
78144;BME280;67394;52.522;13.622;2023-07-09T10:01:30;101475.50;;;31.43;32.13
78144;BME280;67394;52.522;13.622;2023-07-09T10:03:58;101474.47;;;31.57;32.39
78144;BME280;67394;52.522;13.622;2023-07-09T10:06:41;101476.56;;;31.64;29.83
78144;BME280;67394;52.522;13.622;2023-07-09T10:09:19;101473.84;;;31.88;30.30
78144;BME280;67394;52.522;13.622;2023-07-09T10:20:03;101484.72;;;31.96;27.76
78144;BME280;67394;52.522;13.622;2023-07-09T10:22:50;101479.47;;;32.19;30.59
78144;BME280;67394;52.522;13.622;2023-07-09T10:25:42;101479.47;;;32.30;27.03
78144;BME280;67394;52.522;13.622;2023-07-09T10:28:32;101473.78;;;32.46;29.42
78144;BME280;67394;52.522;13.622;2023-07-09T10:34:21;101470.44;;;32.98;30.80
78144;BME280;67394;52.522;13.622;2023-07-09T10:39:44;101463.50;;;32.75;28.55
78144;BME280;67394;52.522;13.622;2023-07-09T10:42:27;101473.63;;;32.69;30.18
78144;BME280;67394;52.522;13.622;2023-07-09T10:45:01;101469.88;;;32.94;29.59
78144;BME280;67394;52.522;13.622;2023-07-09T10:47:35;101463.88;;;33.24;30.39
78144;BME280;67394;52.522;13.622;2023-07-09T10:50:05;101465.72;;;33.44;28.12
78144;BME280;67394;52.522;13.622;2023-07-09T10:52:41;101457.13;;;33.41;26.55
78144;BME280;67394;52.522;13.622;2023-07-09T10:55:23;101457.81;;;33.54;31.03
78144;BME280;67394;52.522;13.622;2023-07-09T10:58:33;101464.22;;;33.20;28.70
78144;BME280;67394;52.522;13.622;2023-07-09T11:00:57;101462.53;;;33.19;27.53
78144;BME280;67394;52.522;13.622;2023-07-09T11:03:50;101461.28;;;33.34;28.76
78144;BME280;67394;52.522;13.622;2023-07-09T11:06:43;101458.69;;;33.43;26.98
78144;BME280;67394;52.522;13.622;2023-07-09T11:09:22;101459.97;;;33.28;27.70
78144;BME280;67394;52.522;13.622;2023-07-09T11:11:54;101456.53;;;33.37;28.22
78144;BME280;67394;52.522;13.622;2023-07-09T11:14:43;101459.31;;;33.47;27.67
78144;BME280;67394;52.522;13.622;2023-07-09T11:17:19;101454.25;;;33.01;26.56
78144;BME280;67394;52.522;13.622;2023-07-09T11:19:53;101454.03;;;33.36;27.26
78144;BME280;67394;52.522;13.622;2023-07-09T11:22:26;101444.63;;;33.73;27.20
78144;BME280;67394;52.522;13.622;2023-07-09T11:25:07;101444.84;;;33.82;25.73
78144;BME280;67394;52.522;13.622;2023-07-09T11:27:45;101435.38;;;33.89;26.98
78144;BME280;67394;52.522;13.622;2023-07-09T11:30:26;101441.31;;;33.60;26.47
78144;BME280;67394;52.522;13.622;2023-07-09T11:33:04;101442.09;;;33.93;27.80
78144;BME280;67394;52.522;13.622;2023-07-09T11:35:54;101437.13;;;33.58;26.47
78144;BME280;67394;52.522;13.622;2023-07-09T11:38:39;101433.28;;;33.51;26.15
78144;BME280;67394;52.522;13.622;2023-07-09T11:44:25;101421.78;;;33.92;27.01
78144;BME280;67394;52.522;13.622;2023-07-09T11:46:55;101428.13;;;34.00;26.16
78144;BME280;67394;52.522;13.622;2023-07-09T11:49:27;101420.44;;;33.76;24.69
78144;BME280;67394;52.522;13.622;2023-07-09T11:51:59;101420.44;;;33.76;24.55
78144;BME280;67394;52.522;13.622;2023-07-09T11:54:26;101417.97;;;33.85;25.38
78144;BME280;67394;52.522;13.622;2023-07-09T11:56:59;101412.44;;;33.97;25.48
78144;BME280;67394;52.522;13.622;2023-07-09T11:59:26;101412.44;;;33.97;25.93
78144;BME280;67394;52.522;13.622;2023-07-09T12:01:53;101407.97;;;34.38;26.23
78144;BME280;67394;52.522;13.622;2023-07-09T12:04:22;101409.03;;;34.75;26.65
78144;BME280;67394;52.522;13.622;2023-07-09T12:06:53;101420.47;;;34.47;24.93
78144;BME280;67394;52.522;13.622;2023-07-09T12:09:23;101420.59;;;34.85;26.55
78144;BME280;67394;52.522;13.622;2023-07-09T12:11:50;101401.75;;;34.87;23.75
78144;BME280;67394;52.522;13.622;2023-07-09T12:14:20;101407.59;;;34.42;25.10
78144;BME280;67394;52.522;13.622;2023-07-09T12:16:51;101400.25;;;34.44;23.17
78144;BME280;67394;52.522;13.622;2023-07-09T12:19:20;101397.44;;;34.27;25.62
78144;BME280;67394;52.522;13.622;2023-07-09T12:21:56;101389.00;;;34.91;25.13
78144;BME280;67394;52.522;13.622;2023-07-09T12:24:28;101391.38;;;34.74;25.75
78144;BME280;67394;52.522;13.622;2023-07-09T12:26:59;101383.53;;;34.92;24.62
78144;BME280;67394;52.522;13.622;2023-07-09T12:29:31;101388.59;;;34.85;24.22
78144;BME280;67394;52.522;13.622;2023-07-09T12:32:10;101384.09;;;35.15;25.13
78144;BME280;67394;52.522;13.622;2023-07-09T12:34:37;101375.34;;;35.42;23.63
78144;BME280;67394;52.522;13.622;2023-07-09T12:37:04;101377.59;;;35.46;23.85
78144;BME280;67394;52.522;13.622;2023-07-09T12:39:33;101382.09;;;35.46;24.93
78144;BME280;67394;52.522;13.622;2023-07-09T12:42:01;101375.66;;;35.29;23.22
78144;BME280;67394;52.522;13.622;2023-07-09T12:44:32;101381.53;;;35.42;22.83
78144;BME280;67394;52.522;13.622;2023-07-09T12:47:00;101367.53;;;35.31;23.63
78144;BME280;67394;52.522;13.622;2023-07-09T12:49:36;101372.72;;;35.32;24.89
78144;BME280;67394;52.522;13.622;2023-07-09T12:52:08;101369.63;;;35.37;24.26
78144;BME280;67394;52.522;13.622;2023-07-09T12:54:35;101365.22;;;35.55;23.51
78144;BME280;67394;52.522;13.622;2023-07-09T12:57:13;101364.88;;;35.02;23.07
78144;BME280;67394;52.522;13.622;2023-07-09T12:59:41;101362.72;;;34.57;23.00
78144;BME280;67394;52.522;13.622;2023-07-09T13:04:40;101356.31;;;34.88;23.19
78144;BME280;67394;52.522;13.622;2023-07-09T13:07:32;101360.03;;;34.38;22.95
78144;BME280;67394;52.522;13.622;2023-07-09T13:10:05;101356.75;;;34.84;22.11
78144;BME280;67394;52.522;13.622;2023-07-09T13:12:33;101346.75;;;35.15;25.47
78144;BME280;67394;52.522;13.622;2023-07-09T13:14:59;101341.28;;;35.26;24.99
78144;BME280;67394;52.522;13.622;2023-07-09T13:17:30;101349.06;;;35.56;22.70
78144;BME280;67394;52.522;13.622;2023-07-09T13:19:57;101348.69;;;35.88;24.08
78144;BME280;67394;52.522;13.622;2023-07-09T13:22:24;101345.38;;;35.77;22.80
78144;BME280;67394;52.522;13.622;2023-07-09T13:24:51;101359.81;;;35.84;22.71